sensor_id;sensor_type;location;lat;lon;timestamp;P1;P2;P0
81989;PMS5003;71485;51.638;-0.182;2023-12-07T00:00:16;9;9;
81989;PMS5003;71485;51.638;-0.182;2023-12-07T00:02:42;10;10;
81989;PMS5003;71485;51.638;-0.182;2023-12-07T00:05:07;10;10;
81989;PMS5003;71485;51.638;-0.182;2023-12-07T00:07:34;12;11;
81989;PMS5003;71485;51.638;-0.182;2023-12-07T00:09:58;9;9;
81989;PMS5003;71485;51.638;-0.182;2023-12-07T00:12:24;11;10;
81989;PMS5003;71485;51.638;-0.182;2023-12-07T00:14:51;9;8;
81989;PMS5003;71485;51.638;-0.182;2023-12-07T00:17:17;10;9;
81989;PMS5003;71485;51.638;-0.182;2023-12-07T00:19:41;12;11;
81989;PMS5003;71485;51.638;-0.182;2023-12-07T00:22:07;10;10;
81989;PMS5003;71485;51.638;-0.182;2023-12-07T00:24:33;9;9;
81989;PMS5003;71485;51.638;-0.182;2023-12-07T00:26:59;10;10;
81989;PMS5003;71485;51.638;-0.182;2023-12-07T00:29:24;10;10;
81989;PMS5003;71485;51.638;-0.182;2023-12-07T00:31:49;11;10;
81989;PMS5003;71485;51.638;-0.182;2023-12-07T00:34:16;10;9;
81989;PMS5003;71485;51.638;-0.182;2023-12-07T00:36:41;7;7;
81989;PMS5003;71485;51.638;-0.182;2023-12-07T00:39:08;10;10;
81989;PMS5003;71485;51.638;-0.182;2023-12-07T00:41:32;9;9;
81989;PMS5003;71485;51.638;-0.182;2023-12-07T00:43:59;10;7;
81989;PMS5003;71485;51.638;-0.182;2023-12-07T00:46:25;14;12;
81989;PMS5003;71485;51.638;-0.182;2023-12-07T00:48:49;8;8;
81989;PMS5003;71485;51.638;-0.182;2023-12-07T00:51:15;9;9;
81989;PMS5003;71485;51.638;-0.182;2023-12-07T00:53:42;11;9;
81989;PMS5003;71485;51.638;-0.182;2023-12-07T00:56:06;8;8;
81989;PMS5003;71485;51.638;-0.182;2023-12-07T00:58:32;8;7;
81989;PMS5003;71485;51.638;-0.182;2023-12-07T01:00:59;9;9;
81989;PMS5003;71485;51.638;-0.182;2023-12-07T01:03:23;8;7;
81989;PMS5003;71485;51.638;-0.182;2023-12-07T01:05:49;8;8;
81989;PMS5003;71485;51.638;-0.182;2023-12-07T01:08:15;10;9;
81989;PMS5003;71485;51.638;-0.182;2023-12-07T01:10:40;9;9;
81989;PMS5003;71485;51.638;-0.182;2023-12-07T01:13:06;8;8;
81989;PMS5003;71485;51.638;-0.182;2023-12-07T01:15:32;7;7;
81989;PMS5003;71485;51.638;-0.182;2023-12-07T01:17:59;8;6;
81989;PMS5003;71485;51.638;-0.182;2023-12-07T01:20:24;11;11;
81989;PMS5003;71485;51.638;-0.182;2023-12-07T01:22:47;8;8;
81989;PMS5003;71485;51.638;-0.182;2023-12-07T01:25:13;9;9;
81989;PMS5003;71485;51.638;-0.182;2023-12-07T01:27:40;8;8;
81989;PMS5003;71485;51.638;-0.182;2023-12-07T01:30:05;9;9;
81989;PMS5003;71485;51.638;-0.182;2023-12-07T01:32:31;8;8;
81989;PMS5003;71485;51.638;-0.182;2023-12-07T01:34:56;9;9;
81989;PMS5003;71485;51.638;-0.182;2023-12-07T01:37:22;9;9;
81989;PMS5003;71485;51.638;-0.182;2023-12-07T01:39:48;8;8;
81989;PMS5003;71485;51.638;-0.182;2023-12-07T01:42:12;10;9;
81989;PMS5003;71485;51.638;-0.182;2023-12-07T01:44:40;11;10;
81989;PMS5003;71485;51.638;-0.182;2023-12-07T01:47:04;8;7;
81989;PMS5003;71485;51.638;-0.182;2023-12-07T01:49:31;9;9;
81989;PMS5003;71485;51.638;-0.182;2023-12-07T01:51:56;9;9;
81989;PMS5003;71485;51.638;-0.182;2023-12-07T01:54:21;9;9;
81989;PMS5003;71485;51.638;-0.182;2023-12-07T01:56:46;10;9;
81989;PMS5003;71485;51.638;-0.182;2023-12-07T01:59:12;10;8;
81989;PMS5003;71485;51.638;-0.182;2023-12-07T02:01:39;10;8;
81989;PMS5003;71485;51.638;-0.182;2023-12-07T02:04:04;7;7;
81989;PMS5003;71485;51.638;-0.182;2023-12-07T02:06:30;10;9;
81989;PMS5003;71485;51.638;-0.182;2023-12-07T02:08:55;8;7;
81989;PMS5003;71485;51.638;-0.182;2023-12-07T02:11:20;9;8;
81989;PMS5003;71485;51.638;-0.182;2023-12-07T02:13:46;6;6;
81989;PMS5003;71485;51.638;-0.182;2023-12-07T02:16:13;12;9;
81989;PMS5003;71485;51.638;-0.182;2023-12-07T02:18:40;8;8;
81989;PMS5003;71485;51.638;-0.182;2023-12-07T02:21:04;9;8;
81989;PMS5003;71485;51.638;-0.182;2023-12-07T02:23:28;8;8;
81989;PMS5003;71485;51.638;-0.182;2023-12-07T02:25:59;10;10;
81989;PMS5003;71485;51.638;-0.182;2023-12-07T02:28:20;9;8;
81989;PMS5003;71485;51.638;-0.182;2023-12-07T02:30:45;6;6;
81989;PMS5003;71485;51.638;-0.182;2023-12-07T02:33:11;7;7;
81989;PMS5003;71485;51.638;-0.182;2023-12-07T02:35:37;9;7;
81989;PMS5003;71485;51.638;-0.182;2023-12-07T02:38:03;8;8;
81989;PMS5003;71485;51.638;-0.182;2023-12-07T02:40:29;8;7;
81989;PMS5003;71485;51.638;-0.182;2023-12-07T02:42:54;7;7;
81989;PMS5003;71485;51.638;-0.182;2023-12-07T02:45:24;7;7;
81989;PMS5003;71485;51.638;-0.182;2023-12-07T02:47:45;8;7;
81989;PMS5003;71485;51.638;-0.182;2023-12-07T02:50:11;6;6;
81989;PMS5003;71485;51.638;-0.182;2023-12-07T02:52:38;9;8;
81989;PMS5003;71485;51.638;-0.182;2023-12-07T02:55:03;9;9;
81989;PMS5003;71485;51.638;-0.182;2023-12-07T02:57:28;7;7;
81989;PMS5003;71485;51.638;-0.182;2023-12-07T02:59:53;6;6;
81989;PMS5003;71485;51.638;-0.182;2023-12-07T03:02:21;7;7;
81989;PMS5003;71485;51.638;-0.182;2023-12-07T03:04:46;7;6;
81989;PMS5003;71485;51.638;-0.182;2023-12-07T03:07:10;6;6;
81989;PMS5003;71485;51.638;-0.182;2023-12-07T03:09:36;7;6;
81989;PMS5003;71485;51.638;-0.182;2023-12-07T03:12:02;6;6;
81989;PMS5003;71485;51.638;-0.182;2023-12-07T03:14:27;5;5;
81989;PMS5003;71485;51.638;-0.182;2023-12-07T03:16:55;6;6;
81989;PMS5003;71485;51.638;-0.182;2023-12-07T03:19:19;6;6;
81989;PMS5003;71485;51.638;-0.182;2023-12-07T03:21:44;7;6;
81989;PMS5003;71485;51.638;-0.182;2023-12-07T03:24:10;8;7;
81989;PMS5003;71485;51.638;-0.182;2023-12-07T03:26:38;5;5;
81989;PMS5003;71485;51.638;-0.182;2023-12-07T03:29:01;8;8;
81989;PMS5003;71485;51.638;-0.182;2023-12-07T03:31:29;7;7;
81989;PMS5003;71485;51.638;-0.182;2023-12-07T03:33:54;7;7;
81989;PMS5003;71485;51.638;-0.182;2023-12-07T03:36:19;6;6;
81989;PMS5003;71485;51.638;-0.182;2023-12-07T03:38:46;8;8;
81989;PMS5003;71485;51.638;-0.182;2023-12-07T03:41:10;7;7;
81989;PMS5003;71485;51.638;-0.182;2023-12-07T03:43:37;7;6;
81989;PMS5003;71485;51.638;-0.182;2023-12-07T03:46:04;5;5;
81989;PMS5003;71485;51.638;-0.182;2023-12-07T03:48:27;7;6;
81989;PMS5003;71485;51.638;-0.182;2023-12-07T03:50:54;7;6;
81989;PMS5003;71485;51.638;-0.182;2023-12-07T03:53:19;6;6;
81989;PMS5003;71485;51.638;-0.182;2023-12-07T03:55:44;5;5;
81989;PMS5003;71485;51.638;-0.182;2023-12-07T03:58:10;7;7;
81989;PMS5003;71485;51.638;-0.182;2023-12-07T04:00:35;7;6;
81989;PMS5003;71485;51.638;-0.182;2023-12-07T04:03:02;5;5;
81989;PMS5003;71485;51.638;-0.182;2023-12-07T04:05:27;5;5;
81989;PMS5003;71485;51.638;-0.182;2023-12-07T04:07:52;5;5;
81989;PMS5003;71485;51.638;-0.182;2023-12-07T04:10:18;5;5;
81989;PMS5003;71485;51.638;-0.182;2023-12-07T04:12:44;5;5;
81989;PMS5003;71485;51.638;-0.182;2023-12-07T04:15:10;7;6;
81989;PMS5003;71485;51.638;-0.182;2023-12-07T04:17:36;4;4;
81989;PMS5003;71485;51.638;-0.182;2023-12-07T04:20:02;7;6;
81989;PMS5003;71485;51.638;-0.182;2023-12-07T04:22:26;7;7;
81989;PMS5003;71485;51.638;-0.182;2023-12-07T04:24:52;5;5;
81989;PMS5003;71485;51.638;-0.182;2023-12-07T04:27:20;7;7;
81989;PMS5003;71485;51.638;-0.182;2023-12-07T04:29:43;5;5;
81989;PMS5003;71485;51.638;-0.182;2023-12-07T04:32:10;5;5;
81989;PMS5003;71485;51.638;-0.182;2023-12-07T04:34:34;5;5;
81989;PMS5003;71485;51.638;-0.182;2023-12-07T04:37:04;6;6;
81989;PMS5003;71485;51.638;-0.182;2023-12-07T04:39:27;7;6;
81989;PMS5003;71485;51.638;-0.182;2023-12-07T04:41:52;5;5;
81989;PMS5003;71485;51.638;-0.182;2023-12-07T04:44:20;4;4;
81989;PMS5003;71485;51.638;-0.182;2023-12-07T04:46:43;4;4;
81989;PMS5003;71485;51.638;-0.182;2023-12-07T04:49:09;8;6;
81989;PMS5003;71485;51.638;-0.182;2023-12-07T04:51:35;4;4;
81989;PMS5003;71485;51.638;-0.182;2023-12-07T04:54:00;5;5;
81989;PMS5003;71485;51.638;-0.182;2023-12-07T04:56:26;3;3;
81989;PMS5003;71485;51.638;-0.182;2023-12-07T04:58:51;4;4;
81989;PMS5003;71485;51.638;-0.182;2023-12-07T05:01:21;6;5;
81989;PMS5003;71485;51.638;-0.182;2023-12-07T05:03:43;5;5;
81989;PMS5003;71485;51.638;-0.182;2023-12-07T05:06:09;6;6;
81989;PMS5003;71485;51.638;-0.182;2023-12-07T05:08:34;6;6;
81989;PMS5003;71485;51.638;-0.182;2023-12-07T05:11:00;5;5;
81989;PMS5003;71485;51.638;-0.182;2023-12-07T05:13:27;5;5;
81989;PMS5003;71485;51.638;-0.182;2023-12-07T05:15:51;4;4;
81989;PMS5003;71485;51.638;-0.182;2023-12-07T05:18:18;5;5;
81989;PMS5003;71485;51.638;-0.182;2023-12-07T05:20:43;5;5;
81989;PMS5003;71485;51.638;-0.182;2023-12-07T05:23:08;5;5;
81989;PMS5003;71485;51.638;-0.182;2023-12-07T05:25:35;5;5;
81989;PMS5003;71485;51.638;-0.182;2023-12-07T05:28:01;4;4;
81989;PMS5003;71485;51.638;-0.182;2023-12-07T05:30:25;4;4;
81989;PMS5003;71485;51.638;-0.182;2023-12-07T05:32:51;5;5;
81989;PMS5003;71485;51.638;-0.182;2023-12-07T05:35:17;4;4;
81989;PMS5003;71485;51.638;-0.182;2023-12-07T05:37:47;5;5;
81989;PMS5003;71485;51.638;-0.182;2023-12-07T05:40:08;4;4;
81989;PMS5003;71485;51.638;-0.182;2023-12-07T05:42:34;3;3;
81989;PMS5003;71485;51.638;-0.182;2023-12-07T05:45:01;4;4;
81989;PMS5003;71485;51.638;-0.182;2023-12-07T05:47:25;7;6;
81989;PMS5003;71485;51.638;-0.182;2023-12-07T05:49:51;4;4;
81989;PMS5003;71485;51.638;-0.182;2023-12-07T05:52:17;4;4;
81989;PMS5003;71485;51.638;-0.182;2023-12-07T05:54:42;4;4;
81989;PMS5003;71485;51.638;-0.182;2023-12-07T05:57:07;5;4;
81989;PMS5003;71485;51.638;-0.182;2023-12-07T05:59:36;4;4;
81989;PMS5003;71485;51.638;-0.182;2023-12-07T06:02:00;4;4;
81989;PMS5003;71485;51.638;-0.182;2023-12-07T06:04:25;4;4;
81989;PMS5003;71485;51.638;-0.182;2023-12-07T06:06:54;3;3;
81989;PMS5003;71485;51.638;-0.182;2023-12-07T06:09:16;2;2;
81989;PMS5003;71485;51.638;-0.182;2023-12-07T06:11:41;5;4;
81989;PMS5003;71485;51.638;-0.182;2023-12-07T06:14:07;4;4;
81989;PMS5003;71485;51.638;-0.182;2023-12-07T06:16:34;4;4;
81989;PMS5003;71485;51.638;-0.182;2023-12-07T06:18:58;7;7;
81989;PMS5003;71485;51.638;-0.182;2023-12-07T06:21:24;2;2;
81989;PMS5003;71485;51.638;-0.182;2023-12-07T06:23:50;3;3;
81989;PMS5003;71485;51.638;-0.182;2023-12-07T06:26:17;3;3;
81989;PMS5003;71485;51.638;-0.182;2023-12-07T06:28:41;4;4;
81989;PMS5003;71485;51.638;-0.182;2023-12-07T06:31:07;5;4;
81989;PMS5003;71485;51.638;-0.182;2023-12-07T06:33:32;5;4;
81989;PMS5003;71485;51.638;-0.182;2023-12-07T06:35:58;4;4;
81989;PMS5003;71485;51.638;-0.182;2023-12-07T06:38:24;4;4;
81989;PMS5003;71485;51.638;-0.182;2023-12-07T06:40:49;4;4;
81989;PMS5003;71485;51.638;-0.182;2023-12-07T06:43:20;6;6;
81989;PMS5003;71485;51.638;-0.182;2023-12-07T06:45:40;5;5;
81989;PMS5003;71485;51.638;-0.182;2023-12-07T06:48:06;5;5;
81989;PMS5003;71485;51.638;-0.182;2023-12-07T06:50:32;3;3;
81989;PMS5003;71485;51.638;-0.182;2023-12-07T06:52:59;4;4;
81989;PMS5003;71485;51.638;-0.182;2023-12-07T06:55:24;6;4;
81989;PMS5003;71485;51.638;-0.182;2023-12-07T06:57:49;4;4;
81989;PMS5003;71485;51.638;-0.182;2023-12-07T07:00:15;4;4;
81989;PMS5003;71485;51.638;-0.182;2023-12-07T07:02:41;4;4;
81989;PMS5003;71485;51.638;-0.182;2023-12-07T07:05:06;11;11;
81989;PMS5003;71485;51.638;-0.182;2023-12-07T07:07:31;10;10;
81989;PMS5003;71485;51.638;-0.182;2023-12-07T07:09:58;10;10;
81989;PMS5003;71485;51.638;-0.182;2023-12-07T07:12:23;14;14;
81989;PMS5003;71485;51.638;-0.182;2023-12-07T07:14:48;15;14;
81989;PMS5003;71485;51.638;-0.182;2023-12-07T07:17:15;17;16;
81989;PMS5003;71485;51.638;-0.182;2023-12-07T07:19:39;15;15;
81989;PMS5003;71485;51.638;-0.182;2023-12-07T07:22:05;20;19;
81989;PMS5003;71485;51.638;-0.182;2023-12-07T07:24:30;21;21;
81989;PMS5003;71485;51.638;-0.182;2023-12-07T07:26:57;19;19;
81989;PMS5003;71485;51.638;-0.182;2023-12-07T07:29:21;19;19;
81989;PMS5003;71485;51.638;-0.182;2023-12-07T07:31:47;21;19;
81989;PMS5003;71485;51.638;-0.182;2023-12-07T07:34:12;21;19;
81989;PMS5003;71485;51.638;-0.182;2023-12-07T07:36:39;19;19;
81989;PMS5003;71485;51.638;-0.182;2023-12-07T07:39:08;21;19;
81989;PMS5003;71485;51.638;-0.182;2023-12-07T07:41:29;19;18;
81989;PMS5003;71485;51.638;-0.182;2023-12-07T07:43:55;16;16;
81989;PMS5003;71485;51.638;-0.182;2023-12-07T07:46:19;19;18;
81989;PMS5003;71485;51.638;-0.182;2023-12-07T07:48:45;15;15;
81989;PMS5003;71485;51.638;-0.182;2023-12-07T07:51:11;20;19;
81989;PMS5003;71485;51.638;-0.182;2023-12-07T07:53:37;20;19;
81989;PMS5003;71485;51.638;-0.182;2023-12-07T07:56:02;14;13;
81989;PMS5003;71485;51.638;-0.182;2023-12-07T07:58:27;19;18;
81989;PMS5003;71485;51.638;-0.182;2023-12-07T08:00:55;17;16;
81989;PMS5003;71485;51.638;-0.182;2023-12-07T08:03:18;16;15;
81989;PMS5003;71485;51.638;-0.182;2023-12-07T08:05:44;18;18;
81989;PMS5003;71485;51.638;-0.182;2023-12-07T08:08:10;19;18;
81989;PMS5003;71485;51.638;-0.182;2023-12-07T08:10:36;17;16;
81989;PMS5003;71485;51.638;-0.182;2023-12-07T08:13:01;17;17;
81989;PMS5003;71485;51.638;-0.182;2023-12-07T08:15:28;13;13;
81989;PMS5003;71485;51.638;-0.182;2023-12-07T08:17:52;16;15;
81989;PMS5003;71485;51.638;-0.182;2023-12-07T08:20:18;14;13;
81989;PMS5003;71485;51.638;-0.182;2023-12-07T08:22:44;12;12;
81989;PMS5003;71485;51.638;-0.182;2023-12-07T08:25:10;16;14;
81989;PMS5003;71485;51.638;-0.182;2023-12-07T08:27:37;14;14;
81989;PMS5003;71485;51.638;-0.182;2023-12-07T08:30:01;13;12;
81989;PMS5003;71485;51.638;-0.182;2023-12-07T08:32:27;12;12;
81989;PMS5003;71485;51.638;-0.182;2023-12-07T08:34:52;11;10;
81989;PMS5003;71485;51.638;-0.182;2023-12-07T08:37:18;12;12;
81989;PMS5003;71485;51.638;-0.182;2023-12-07T08:39:44;12;12;
81989;PMS5003;71485;51.638;-0.182;2023-12-07T08:42:09;10;10;
81989;PMS5003;71485;51.638;-0.182;2023-12-07T08:44:36;11;10;
81989;PMS5003;71485;51.638;-0.182;2023-12-07T08:47:00;8;8;
81989;PMS5003;71485;51.638;-0.182;2023-12-07T08:49:26;11;10;
81989;PMS5003;71485;51.638;-0.182;2023-12-07T08:51:53;11;11;
81989;PMS5003;71485;51.638;-0.182;2023-12-07T08:54:17;15;15;
81989;PMS5003;71485;51.638;-0.182;2023-12-07T08:56:43;20;20;
81989;PMS5003;71485;51.638;-0.182;2023-12-07T08:59:09;21;20;
81989;PMS5003;71485;51.638;-0.182;2023-12-07T09:01:35;16;15;
81989;PMS5003;71485;51.638;-0.182;2023-12-07T09:03:59;16;14;
81989;PMS5003;71485;51.638;-0.182;2023-12-07T09:06:24;19;19;
81989;PMS5003;71485;51.638;-0.182;2023-12-07T09:08:51;17;16;
81989;PMS5003;71485;51.638;-0.182;2023-12-07T09:11:15;15;14;
81989;PMS5003;71485;51.638;-0.182;2023-12-07T09:13:40;14;14;
81989;PMS5003;71485;51.638;-0.182;2023-12-07T09:16:06;15;14;
81989;PMS5003;71485;51.638;-0.182;2023-12-07T09:18:31;14;14;
81989;PMS5003;71485;51.638;-0.182;2023-12-07T09:20:58;11;11;
81989;PMS5003;71485;51.638;-0.182;2023-12-07T09:23:21;12;12;
81989;PMS5003;71485;51.638;-0.182;2023-12-07T09:25:48;11;10;
81989;PMS5003;71485;51.638;-0.182;2023-12-07T09:28:13;12;11;
81989;PMS5003;71485;51.638;-0.182;2023-12-07T09:30:38;14;13;
81989;PMS5003;71485;51.638;-0.182;2023-12-07T09:33:04;12;12;
81989;PMS5003;71485;51.638;-0.182;2023-12-07T09:35:29;11;10;
81989;PMS5003;71485;51.638;-0.182;2023-12-07T09:37:56;10;9;
81989;PMS5003;71485;51.638;-0.182;2023-12-07T09:40:20;10;9;
81989;PMS5003;71485;51.638;-0.182;2023-12-07T09:42:45;10;10;
81989;PMS5003;71485;51.638;-0.182;2023-12-07T09:45:12;13;13;
81989;PMS5003;71485;51.638;-0.182;2023-12-07T09:47:36;12;10;
81989;PMS5003;71485;51.638;-0.182;2023-12-07T09:50:02;12;12;
81989;PMS5003;71485;51.638;-0.182;2023-12-07T09:52:28;11;11;
81989;PMS5003;71485;51.638;-0.182;2023-12-07T09:54:54;10;8;
81989;PMS5003;71485;51.638;-0.182;2023-12-07T09:57:19;9;8;
81989;PMS5003;71485;51.638;-0.182;2023-12-07T09:59:43;12;12;
81989;PMS5003;71485;51.638;-0.182;2023-12-07T10:02:10;12;11;
81989;PMS5003;71485;51.638;-0.182;2023-12-07T10:04:34;11;11;
81989;PMS5003;71485;51.638;-0.182;2023-12-07T10:07:00;11;10;
81989;PMS5003;71485;51.638;-0.182;2023-12-07T10:09:26;8;8;
81989;PMS5003;71485;51.638;-0.182;2023-12-07T10:14:17;7;7;
81989;PMS5003;71485;51.638;-0.182;2023-12-07T10:19:12;8;8;
81989;PMS5003;71485;51.638;-0.182;2023-12-07T10:21:34;13;10;
81989;PMS5003;71485;51.638;-0.182;2023-12-07T10:24:00;9;9;
81989;PMS5003;71485;51.638;-0.182;2023-12-07T10:26:26;8;8;
81989;PMS5003;71485;51.638;-0.182;2023-12-07T10:28:51;7;7;
81989;PMS5003;71485;51.638;-0.182;2023-12-07T10:31:17;6;6;
81989;PMS5003;71485;51.638;-0.182;2023-12-07T10:33:44;9;7;
81989;PMS5003;71485;51.638;-0.182;2023-12-07T10:36:08;7;7;
81989;PMS5003;71485;51.638;-0.182;2023-12-07T10:38:34;6;6;
81989;PMS5003;71485;51.638;-0.182;2023-12-07T10:41:03;7;6;
81989;PMS5003;71485;51.638;-0.182;2023-12-07T10:43:26;7;7;
81989;PMS5003;71485;51.638;-0.182;2023-12-07T10:45:50;8;8;
81989;PMS5003;71485;51.638;-0.182;2023-12-07T10:48:17;7;7;
81989;PMS5003;71485;51.638;-0.182;2023-12-07T10:50:42;8;7;
81989;PMS5003;71485;51.638;-0.182;2023-12-07T10:53:09;7;6;
81989;PMS5003;71485;51.638;-0.182;2023-12-07T10:55:35;9;8;
81989;PMS5003;71485;51.638;-0.182;2023-12-07T10:57:59;8;8;
81989;PMS5003;71485;51.638;-0.182;2023-12-07T11:00:24;6;6;
81989;PMS5003;71485;51.638;-0.182;2023-12-07T11:02:50;7;6;
81989;PMS5003;71485;51.638;-0.182;2023-12-07T11:05:15;6;6;
81989;PMS5003;71485;51.638;-0.182;2023-12-07T11:07:45;6;6;
81989;PMS5003;71485;51.638;-0.182;2023-12-07T11:10:10;7;6;
81989;PMS5003;71485;51.638;-0.182;2023-12-07T11:12:33;5;4;
81989;PMS5003;71485;51.638;-0.182;2023-12-07T11:14:58;7;6;
81989;PMS5003;71485;51.638;-0.182;2023-12-07T11:17:24;6;5;
81989;PMS5003;71485;51.638;-0.182;2023-12-07T11:19:49;7;7;
81989;PMS5003;71485;51.638;-0.182;2023-12-07T11:22:14;7;5;
81989;PMS5003;71485;51.638;-0.182;2023-12-07T11:27:07;7;5;
81989;PMS5003;71485;51.638;-0.182;2023-12-07T11:29:31;4;4;
81989;PMS5003;71485;51.638;-0.182;2023-12-07T11:32:00;5;5;
81989;PMS5003;71485;51.638;-0.182;2023-12-07T11:36:50;5;5;
81989;PMS5003;71485;51.638;-0.182;2023-12-07T11:39:15;5;4;
81989;PMS5003;71485;51.638;-0.182;2023-12-07T11:41:40;4;4;
81989;PMS5003;71485;51.638;-0.182;2023-12-07T11:44:05;6;6;
81989;PMS5003;71485;51.638;-0.182;2023-12-07T11:46:30;5;5;
81989;PMS5003;71485;51.638;-0.182;2023-12-07T11:48:56;7;7;
81989;PMS5003;71485;51.638;-0.182;2023-12-07T11:51:21;4;4;
81989;PMS5003;71485;51.638;-0.182;2023-12-07T11:53:48;4;4;
81989;PMS5003;71485;51.638;-0.182;2023-12-07T11:56:13;5;5;
81989;PMS5003;71485;51.638;-0.182;2023-12-07T11:58:38;4;4;
81989;PMS5003;71485;51.638;-0.182;2023-12-07T12:01:05;5;4;
81989;PMS5003;71485;51.638;-0.182;2023-12-07T12:03:30;6;6;
81989;PMS5003;71485;51.638;-0.182;2023-12-07T12:05:55;4;4;
81989;PMS5003;71485;51.638;-0.182;2023-12-07T12:08:22;4;4;
81989;PMS5003;71485;51.638;-0.182;2023-12-07T12:10:47;4;4;
81989;PMS5003;71485;51.638;-0.182;2023-12-07T12:13:12;5;4;
81989;PMS5003;71485;51.638;-0.182;2023-12-07T12:15:38;3;3;
81989;PMS5003;71485;51.638;-0.182;2023-12-07T12:18:04;4;4;
81989;PMS5003;71485;51.638;-0.182;2023-12-07T12:20:29;5;5;
81989;PMS5003;71485;51.638;-0.182;2023-12-07T12:22:55;4;4;
81989;PMS5003;71485;51.638;-0.182;2023-12-07T12:25:21;5;4;
81989;PMS5003;71485;51.638;-0.182;2023-12-07T12:27:47;5;5;
81989;PMS5003;71485;51.638;-0.182;2023-12-07T12:30:12;5;5;
81989;PMS5003;71485;51.638;-0.182;2023-12-07T12:32:43;5;5;
81989;PMS5003;71485;51.638;-0.182;2023-12-07T12:35:03;5;5;
81989;PMS5003;71485;51.638;-0.182;2023-12-07T12:37:30;7;6;
81989;PMS5003;71485;51.638;-0.182;2023-12-07T12:39:56;5;5;
81989;PMS5003;71485;51.638;-0.182;2023-12-07T12:42:20;6;5;
81989;PMS5003;71485;51.638;-0.182;2023-12-07T12:44:47;5;5;
81989;PMS5003;71485;51.638;-0.182;2023-12-07T12:47:11;3;3;
81989;PMS5003;71485;51.638;-0.182;2023-12-07T12:49:37;4;4;
81989;PMS5003;71485;51.638;-0.182;2023-12-07T12:52:03;4;4;
81989;PMS5003;71485;51.638;-0.182;2023-12-07T12:54:30;5;4;
81989;PMS5003;71485;51.638;-0.182;2023-12-07T12:56:54;6;5;
81989;PMS5003;71485;51.638;-0.182;2023-12-07T12:59:19;4;3;
81989;PMS5003;71485;51.638;-0.182;2023-12-07T13:01:46;4;4;
81989;PMS5003;71485;51.638;-0.182;2023-12-07T13:04:11;3;3;
81989;PMS5003;71485;51.638;-0.182;2023-12-07T13:06:39;5;5;
81989;PMS5003;71485;51.638;-0.182;2023-12-07T13:09:02;5;5;
81989;PMS5003;71485;51.638;-0.182;2023-12-07T13:11:27;2;2;
81989;PMS5003;71485;51.638;-0.182;2023-12-07T13:13:55;5;4;
81989;PMS5003;71485;51.638;-0.182;2023-12-07T13:16:19;4;4;
81989;PMS5003;71485;51.638;-0.182;2023-12-07T13:18:44;5;5;
81989;PMS5003;71485;51.638;-0.182;2023-12-07T13:21:10;7;6;
81989;PMS5003;71485;51.638;-0.182;2023-12-07T13:23:36;4;4;
81989;PMS5003;71485;51.638;-0.182;2023-12-07T13:26:02;4;4;
81989;PMS5003;71485;51.638;-0.182;2023-12-07T13:28:27;5;5;
81989;PMS5003;71485;51.638;-0.182;2023-12-07T13:30:53;5;3;
81989;PMS5003;71485;51.638;-0.182;2023-12-07T13:33:18;3;3;
81989;PMS5003;71485;51.638;-0.182;2023-12-07T13:35:44;7;7;
81989;PMS5003;71485;51.638;-0.182;2023-12-07T13:38:11;5;5;
81989;PMS5003;71485;51.638;-0.182;2023-12-07T13:40:35;3;3;
81989;PMS5003;71485;51.638;-0.182;2023-12-07T13:43:01;5;4;
81989;PMS5003;71485;51.638;-0.182;2023-12-07T13:45:29;5;4;
81989;PMS5003;71485;51.638;-0.182;2023-12-07T13:47:52;3;3;
81989;PMS5003;71485;51.638;-0.182;2023-12-07T13:50:19;3;3;
81989;PMS5003;71485;51.638;-0.182;2023-12-07T13:52:44;3;3;
81989;PMS5003;71485;51.638;-0.182;2023-12-07T13:55:09;3;3;
81989;PMS5003;71485;51.638;-0.182;2023-12-07T13:57:35;3;3;
81989;PMS5003;71485;51.638;-0.182;2023-12-07T14:00:01;4;3;
81989;PMS5003;71485;51.638;-0.182;2023-12-07T14:02:27;5;5;
81989;PMS5003;71485;51.638;-0.182;2023-12-07T14:04:53;5;4;
81989;PMS5003;71485;51.638;-0.182;2023-12-07T14:07:20;5;4;
81989;PMS5003;71485;51.638;-0.182;2023-12-07T14:09:44;5;3;
81989;PMS5003;71485;51.638;-0.182;2023-12-07T14:12:09;5;4;
81989;PMS5003;71485;51.638;-0.182;2023-12-07T14:14:36;4;4;
81989;PMS5003;71485;51.638;-0.182;2023-12-07T14:17:00;5;5;
81989;PMS5003;71485;51.638;-0.182;2023-12-07T14:19:26;4;4;
81989;PMS5003;71485;51.638;-0.182;2023-12-07T14:21:53;5;4;
81989;PMS5003;71485;51.638;-0.182;2023-12-07T14:24:17;5;4;
81989;PMS5003;71485;51.638;-0.182;2023-12-07T14:26:44;3;3;
81989;PMS5003;71485;51.638;-0.182;2023-12-07T14:29:09;4;3;
81989;PMS5003;71485;51.638;-0.182;2023-12-07T14:31:34;4;4;
81989;PMS5003;71485;51.638;-0.182;2023-12-07T14:34:00;4;4;
81989;PMS5003;71485;51.638;-0.182;2023-12-07T14:36:27;4;3;
81989;PMS5003;71485;51.638;-0.182;2023-12-07T14:38:53;4;4;
81989;PMS5003;71485;51.638;-0.182;2023-12-07T14:41:17;3;3;
81989;PMS5003;71485;51.638;-0.182;2023-12-07T14:43:44;5;5;
81989;PMS5003;71485;51.638;-0.182;2023-12-07T14:46:08;3;3;
81989;PMS5003;71485;51.638;-0.182;2023-12-07T14:48:34;5;5;
81989;PMS5003;71485;51.638;-0.182;2023-12-07T14:51:00;5;5;
81989;PMS5003;71485;51.638;-0.182;2023-12-07T14:53:26;5;4;
81989;PMS5003;71485;51.638;-0.182;2023-12-07T14:55:55;4;4;
81989;PMS5003;71485;51.638;-0.182;2023-12-07T14:58:17;5;5;
81989;PMS5003;71485;51.638;-0.182;2023-12-07T15:00:43;4;4;
81989;PMS5003;71485;51.638;-0.182;2023-12-07T15:03:09;3;3;
81989;PMS5003;71485;51.638;-0.182;2023-12-07T15:05:34;3;3;
81989;PMS5003;71485;51.638;-0.182;2023-12-07T15:07:59;3;3;
81989;PMS5003;71485;51.638;-0.182;2023-12-07T15:10:26;4;4;
81989;PMS5003;71485;51.638;-0.182;2023-12-07T15:12:51;4;4;
81989;PMS5003;71485;51.638;-0.182;2023-12-07T15:15:16;3;3;
81989;PMS5003;71485;51.638;-0.182;2023-12-07T15:17:42;5;5;
81989;PMS5003;71485;51.638;-0.182;2023-12-07T15:20:08;4;3;
81989;PMS5003;71485;51.638;-0.182;2023-12-07T15:22:34;2;2;
81989;PMS5003;71485;51.638;-0.182;2023-12-07T15:24:59;3;3;
81989;PMS5003;71485;51.638;-0.182;2023-12-07T15:27:25;4;4;
81989;PMS5003;71485;51.638;-0.182;2023-12-07T15:29:50;3;3;
81989;PMS5003;71485;51.638;-0.182;2023-12-07T15:32:16;4;4;
81989;PMS5003;71485;51.638;-0.182;2023-12-07T15:34:42;4;4;
81989;PMS5003;71485;51.638;-0.182;2023-12-07T15:37:09;6;5;
81989;PMS5003;71485;51.638;-0.182;2023-12-07T15:39:34;4;4;
81989;PMS5003;71485;51.638;-0.182;2023-12-07T15:41:59;4;4;
81989;PMS5003;71485;51.638;-0.182;2023-12-07T15:44:25;3;3;
81989;PMS5003;71485;51.638;-0.182;2023-12-07T15:46:52;4;3;
81989;PMS5003;71485;51.638;-0.182;2023-12-07T15:49:16;4;4;
81989;PMS5003;71485;51.638;-0.182;2023-12-07T15:51:43;4;4;
81989;PMS5003;71485;51.638;-0.182;2023-12-07T15:54:07;4;4;
81989;PMS5003;71485;51.638;-0.182;2023-12-07T15:56:33;3;3;
81989;PMS5003;71485;51.638;-0.182;2023-12-07T15:59:04;4;3;
81989;PMS5003;71485;51.638;-0.182;2023-12-07T16:01:25;4;4;
81989;PMS5003;71485;51.638;-0.182;2023-12-07T16:03:51;3;3;
81989;PMS5003;71485;51.638;-0.182;2023-12-07T16:06:16;6;5;
81989;PMS5003;71485;51.638;-0.182;2023-12-07T16:08:43;2;2;
81989;PMS5003;71485;51.638;-0.182;2023-12-07T16:11:07;4;3;
81989;PMS5003;71485;51.638;-0.182;2023-12-07T16:13:34;4;3;
81989;PMS5003;71485;51.638;-0.182;2023-12-07T16:15:59;5;5;
81989;PMS5003;71485;51.638;-0.182;2023-12-07T16:18:24;3;3;
81989;PMS5003;71485;51.638;-0.182;2023-12-07T16:20:50;3;3;
81989;PMS5003;71485;51.638;-0.182;2023-12-07T16:23:15;4;4;